sensor_id;sensor_type;location;lat;lon;timestamp;P1;durP1;ratioP1;P2;durP2;ratioP2
19026;SDS011;9646;52.034;5.554;2023-07-09T00:01:02;10.88;;;7.30;;
19026;SDS011;9646;52.034;5.554;2023-07-09T00:03:31;12.02;;;7.32;;
19026;SDS011;9646;52.034;5.554;2023-07-09T00:05:58;8.25;;;6.55;;
19026;SDS011;9646;52.034;5.554;2023-07-09T00:08:27;11.25;;;7.78;;
19026;SDS011;9646;52.034;5.554;2023-07-09T00:10:55;9.57;;;7.20;;
19026;SDS011;9646;52.034;5.554;2023-07-09T00:13:22;9.60;;;7.30;;
19026;SDS011;9646;52.034;5.554;2023-07-09T00:15:49;10.02;;;7.07;;
19026;SDS011;9646;52.034;5.554;2023-07-09T00:18:16;14.65;;;7.60;;
19026;SDS011;9646;52.034;5.554;2023-07-09T00:20:45;11.30;;;7.18;;
19026;SDS011;9646;52.034;5.554;2023-07-09T00:23:13;11.00;;;7.15;;
19026;SDS011;9646;52.034;5.554;2023-07-09T00:25:41;9.07;;;7.25;;
19026;SDS011;9646;52.034;5.554;2023-07-09T00:28:12;9.35;;;6.70;;
19026;SDS011;9646;52.034;5.554;2023-07-09T00:30:39;9.90;;;6.95;;
19026;SDS011;9646;52.034;5.554;2023-07-09T00:33:06;12.48;;;6.90;;
19026;SDS011;9646;52.034;5.554;2023-07-09T00:35:36;10.85;;;6.95;;
19026;SDS011;9646;52.034;5.554;2023-07-09T00:38:07;9.05;;;7.20;;
19026;SDS011;9646;52.034;5.554;2023-07-09T00:40:34;10.02;;;7.15;;
19026;SDS011;9646;52.034;5.554;2023-07-09T00:43:01;11.43;;;7.50;;
19026;SDS011;9646;52.034;5.554;2023-07-09T00:45:29;11.63;;;7.63;;
19026;SDS011;9646;52.034;5.554;2023-07-09T00:47:58;10.07;;;7.50;;
19026;SDS011;9646;52.034;5.554;2023-07-09T00:50:33;8.23;;;6.80;;
19026;SDS011;9646;52.034;5.554;2023-07-09T00:53:02;12.30;;;7.18;;
19026;SDS011;9646;52.034;5.554;2023-07-09T00:55:34;11.43;;;6.50;;
19026;SDS011;9646;52.034;5.554;2023-07-09T00:58:03;9.07;;;6.95;;
19026;SDS011;9646;52.034;5.554;2023-07-09T01:00:32;10.68;;;7.00;;
19026;SDS011;9646;52.034;5.554;2023-07-09T01:03:07;8.27;;;7.07;;
19026;SDS011;9646;52.034;5.554;2023-07-09T01:05:35;10.75;;;8.25;;
19026;SDS011;9646;52.034;5.554;2023-07-09T01:08:02;11.93;;;7.47;;
19026;SDS011;9646;52.034;5.554;2023-07-09T01:10:29;12.52;;;7.57;;
19026;SDS011;9646;52.034;5.554;2023-07-09T01:12:58;10.38;;;7.40;;
19026;SDS011;9646;52.034;5.554;2023-07-09T01:15:25;8.95;;;7.25;;
19026;SDS011;9646;52.034;5.554;2023-07-09T01:17:52;10.13;;;7.43;;
19026;SDS011;9646;52.034;5.554;2023-07-09T01:20:19;8.93;;;7.45;;
19026;SDS011;9646;52.034;5.554;2023-07-09T01:22:50;11.07;;;7.95;;
19026;SDS011;9646;52.034;5.554;2023-07-09T01:25:19;9.88;;;7.50;;
19026;SDS011;9646;52.034;5.554;2023-07-09T01:27:47;11.75;;;7.57;;
19026;SDS011;9646;52.034;5.554;2023-07-09T01:30:16;8.63;;;7.10;;
19026;SDS011;9646;52.034;5.554;2023-07-09T01:32:44;9.70;;;7.45;;
19026;SDS011;9646;52.034;5.554;2023-07-09T01:35:12;10.38;;;7.68;;
19026;SDS011;9646;52.034;5.554;2023-07-09T01:37:40;10.55;;;7.43;;
19026;SDS011;9646;52.034;5.554;2023-07-09T01:40:10;9.75;;;8.00;;
19026;SDS011;9646;52.034;5.554;2023-07-09T01:42:37;9.80;;;7.38;;
19026;SDS011;9646;52.034;5.554;2023-07-09T01:45:05;11.52;;;7.32;;
19026;SDS011;9646;52.034;5.554;2023-07-09T01:47:32;10.95;;;7.88;;
19026;SDS011;9646;52.034;5.554;2023-07-09T01:49:59;10.77;;;7.15;;
19026;SDS011;9646;52.034;5.554;2023-07-09T01:52:28;11.65;;;8.75;;
19026;SDS011;9646;52.034;5.554;2023-07-09T01:54:55;11.63;;;7.72;;
19026;SDS011;9646;52.034;5.554;2023-07-09T01:57:25;11.57;;;7.80;;
19026;SDS011;9646;52.034;5.554;2023-07-09T01:59:58;9.20;;;7.63;;
19026;SDS011;9646;52.034;5.554;2023-07-09T02:02:25;12.65;;;7.82;;
19026;SDS011;9646;52.034;5.554;2023-07-09T02:04:53;11.40;;;7.93;;
19026;SDS011;9646;52.034;5.554;2023-07-09T02:07:21;10.57;;;7.47;;
19026;SDS011;9646;52.034;5.554;2023-07-09T02:09:49;13.32;;;7.78;;
19026;SDS011;9646;52.034;5.554;2023-07-09T02:12:16;13.23;;;7.53;;
19026;SDS011;9646;52.034;5.554;2023-07-09T02:14:45;10.88;;;8.00;;
19026;SDS011;9646;52.034;5.554;2023-07-09T02:17:13;10.68;;;7.75;;
19026;SDS011;9646;52.034;5.554;2023-07-09T02:19:41;10.10;;;7.82;;
19026;SDS011;9646;52.034;5.554;2023-07-09T02:22:08;13.52;;;8.20;;
19026;SDS011;9646;52.034;5.554;2023-07-09T02:24:35;12.48;;;8.50;;
19026;SDS011;9646;52.034;5.554;2023-07-09T02:27:04;9.68;;;7.88;;
19026;SDS011;9646;52.034;5.554;2023-07-09T02:29:31;9.05;;;7.22;;
19026;SDS011;9646;52.034;5.554;2023-07-09T02:32:00;11.40;;;7.97;;
19026;SDS011;9646;52.034;5.554;2023-07-09T02:34:27;13.75;;;8.35;;
19026;SDS011;9646;52.034;5.554;2023-07-09T02:36:55;11.15;;;7.95;;
19026;SDS011;9646;52.034;5.554;2023-07-09T02:39:23;12.48;;;7.90;;
19026;SDS011;9646;52.034;5.554;2023-07-09T02:41:50;11.18;;;8.43;;
19026;SDS011;9646;52.034;5.554;2023-07-09T02:44:18;10.35;;;7.82;;
19026;SDS011;9646;52.034;5.554;2023-07-09T02:46:45;10.68;;;7.72;;
19026;SDS011;9646;52.034;5.554;2023-07-09T02:49:13;11.48;;;8.13;;
19026;SDS011;9646;52.034;5.554;2023-07-09T02:51:41;11.43;;;8.13;;
19026;SDS011;9646;52.034;5.554;2023-07-09T02:54:08;9.48;;;7.55;;
19026;SDS011;9646;52.034;5.554;2023-07-09T02:56:35;8.32;;;6.55;;
19026;SDS011;9646;52.034;5.554;2023-07-09T02:59:03;8.98;;;7.57;;
19026;SDS011;9646;52.034;5.554;2023-07-09T03:01:30;10.68;;;8.15;;
19026;SDS011;9646;52.034;5.554;2023-07-09T03:03:59;12.15;;;8.02;;
19026;SDS011;9646;52.034;5.554;2023-07-09T03:06:29;11.32;;;7.78;;
19026;SDS011;9646;52.034;5.554;2023-07-09T03:08:59;11.77;;;8.40;;
19026;SDS011;9646;52.034;5.554;2023-07-09T03:11:27;10.73;;;7.45;;
19026;SDS011;9646;52.034;5.554;2023-07-09T03:13:55;13.85;;;7.63;;
19026;SDS011;9646;52.034;5.554;2023-07-09T03:16:22;9.52;;;7.57;;
19026;SDS011;9646;52.034;5.554;2023-07-09T03:18:49;11.13;;;8.60;;
19026;SDS011;9646;52.034;5.554;2023-07-09T03:21:16;10.52;;;8.02;;
19026;SDS011;9646;52.034;5.554;2023-07-09T03:23:45;12.55;;;8.55;;
19026;SDS011;9646;52.034;5.554;2023-07-09T03:26:12;10.27;;;7.78;;
19026;SDS011;9646;52.034;5.554;2023-07-09T03:28:40;10.75;;;8.10;;
19026;SDS011;9646;52.034;5.554;2023-07-09T03:31:07;9.55;;;7.55;;
19026;SDS011;9646;52.034;5.554;2023-07-09T03:33:34;8.75;;;7.13;;
19026;SDS011;9646;52.034;5.554;2023-07-09T03:36:02;13.43;;;8.32;;
19026;SDS011;9646;52.034;5.554;2023-07-09T03:38:29;13.43;;;8.82;;
19026;SDS011;9646;52.034;5.554;2023-07-09T03:40:58;13.82;;;8.88;;
19026;SDS011;9646;52.034;5.554;2023-07-09T03:43:25;11.30;;;8.98;;
19026;SDS011;9646;52.034;5.554;2023-07-09T03:45:52;12.23;;;8.73;;
19026;SDS011;9646;52.034;5.554;2023-07-09T03:48:19;12.35;;;9.40;;
19026;SDS011;9646;52.034;5.554;2023-07-09T03:50:46;10.43;;;9.02;;
19026;SDS011;9646;52.034;5.554;2023-07-09T03:53:14;12.40;;;8.90;;
19026;SDS011;9646;52.034;5.554;2023-07-09T03:55:41;13.25;;;9.07;;
19026;SDS011;9646;52.034;5.554;2023-07-09T03:58:10;15.43;;;9.75;;
19026;SDS011;9646;52.034;5.554;2023-07-09T04:00:37;11.00;;;9.05;;
19026;SDS011;9646;52.034;5.554;2023-07-09T04:03:05;10.63;;;8.55;;
19026;SDS011;9646;52.034;5.554;2023-07-09T04:05:33;9.52;;;8.27;;
19026;SDS011;9646;52.034;5.554;2023-07-09T04:08:00;12.70;;;8.98;;
19026;SDS011;9646;52.034;5.554;2023-07-09T04:10:27;10.90;;;8.73;;
19026;SDS011;9646;52.034;5.554;2023-07-09T04:12:54;12.55;;;9.70;;
19026;SDS011;9646;52.034;5.554;2023-07-09T04:15:23;12.70;;;9.30;;
19026;SDS011;9646;52.034;5.554;2023-07-09T04:17:50;12.63;;;8.68;;
19026;SDS011;9646;52.034;5.554;2023-07-09T04:20:17;12.38;;;8.50;;
19026;SDS011;9646;52.034;5.554;2023-07-09T04:22:44;11.27;;;8.48;;
19026;SDS011;9646;52.034;5.554;2023-07-09T04:25:12;10.95;;;8.52;;
19026;SDS011;9646;52.034;5.554;2023-07-09T04:27:39;10.60;;;8.55;;
19026;SDS011;9646;52.034;5.554;2023-07-09T04:30:08;10.15;;;8.75;;
19026;SDS011;9646;52.034;5.554;2023-07-09T04:32:36;13.57;;;9.88;;
19026;SDS011;9646;52.034;5.554;2023-07-09T04:35:04;16.20;;;9.00;;
19026;SDS011;9646;52.034;5.554;2023-07-09T04:37:31;12.15;;;9.25;;
19026;SDS011;9646;52.034;5.554;2023-07-09T04:39:58;14.40;;;9.77;;
19026;SDS011;9646;52.034;5.554;2023-07-09T04:42:25;12.73;;;9.07;;
19026;SDS011;9646;52.034;5.554;2023-07-09T04:44:52;12.15;;;9.48;;
19026;SDS011;9646;52.034;5.554;2023-07-09T04:47:20;13.10;;;9.00;;
19026;SDS011;9646;52.034;5.554;2023-07-09T04:49:48;13.80;;;9.68;;
19026;SDS011;9646;52.034;5.554;2023-07-09T04:52:15;11.65;;;9.48;;
19026;SDS011;9646;52.034;5.554;2023-07-09T04:54:42;10.95;;;8.80;;
19026;SDS011;9646;52.034;5.554;2023-07-09T04:57:10;10.90;;;8.65;;
19026;SDS011;9646;52.034;5.554;2023-07-09T04:59:37;12.07;;;8.75;;
19026;SDS011;9646;52.034;5.554;2023-07-09T05:02:04;15.13;;;9.27;;
19026;SDS011;9646;52.034;5.554;2023-07-09T05:04:32;11.45;;;9.52;;
19026;SDS011;9646;52.034;5.554;2023-07-09T05:07:00;12.85;;;9.30;;
19026;SDS011;9646;52.034;5.554;2023-07-09T05:09:27;12.10;;;9.02;;
19026;SDS011;9646;52.034;5.554;2023-07-09T05:11:54;15.60;;;9.32;;
19026;SDS011;9646;52.034;5.554;2023-07-09T05:14:21;11.43;;;8.63;;
19026;SDS011;9646;52.034;5.554;2023-07-09T05:16:48;12.38;;;9.23;;
19026;SDS011;9646;52.034;5.554;2023-07-09T05:19:15;13.63;;;9.32;;
19026;SDS011;9646;52.034;5.554;2023-07-09T05:21:42;10.85;;;8.77;;
19026;SDS011;9646;52.034;5.554;2023-07-09T05:24:11;14.30;;;9.52;;
19026;SDS011;9646;52.034;5.554;2023-07-09T05:26:38;12.70;;;8.90;;
19026;SDS011;9646;52.034;5.554;2023-07-09T05:29:05;13.75;;;10.35;;
19026;SDS011;9646;52.034;5.554;2023-07-09T05:31:32;12.05;;;8.77;;
19026;SDS011;9646;52.034;5.554;2023-07-09T05:34:01;13.65;;;9.38;;
19026;SDS011;9646;52.034;5.554;2023-07-09T05:36:28;14.50;;;10.80;;
19026;SDS011;9646;52.034;5.554;2023-07-09T05:38:55;12.35;;;10.65;;
19026;SDS011;9646;52.034;5.554;2023-07-09T05:41:24;15.88;;;11.18;;
19026;SDS011;9646;52.034;5.554;2023-07-09T05:43:51;14.85;;;10.75;;
19026;SDS011;9646;52.034;5.554;2023-07-09T05:46:19;16.77;;;11.90;;
19026;SDS011;9646;52.034;5.554;2023-07-09T05:48:46;16.50;;;11.48;;
19026;SDS011;9646;52.034;5.554;2023-07-09T05:51:13;14.30;;;11.45;;
19026;SDS011;9646;52.034;5.554;2023-07-09T05:53:40;10.82;;;8.88;;
19026;SDS011;9646;52.034;5.554;2023-07-09T05:56:07;14.68;;;10.43;;
19026;SDS011;9646;52.034;5.554;2023-07-09T05:58:36;11.18;;;8.07;;
19026;SDS011;9646;52.034;5.554;2023-07-09T06:01:03;10.80;;;7.88;;
19026;SDS011;9646;52.034;5.554;2023-07-09T06:03:30;12.07;;;10.20;;
19026;SDS011;9646;52.034;5.554;2023-07-09T06:05:58;13.68;;;9.90;;
19026;SDS011;9646;52.034;5.554;2023-07-09T06:08:26;11.20;;;9.00;;
19026;SDS011;9646;52.034;5.554;2023-07-09T06:10:54;12.18;;;9.13;;
19026;SDS011;9646;52.034;5.554;2023-07-09T06:13:21;12.60;;;8.98;;
19026;SDS011;9646;52.034;5.554;2023-07-09T06:15:49;13.75;;;10.55;;
19026;SDS011;9646;52.034;5.554;2023-07-09T06:18:17;18.80;;;11.32;;
19026;SDS011;9646;52.034;5.554;2023-07-09T06:20:46;13.38;;;10.32;;
19026;SDS011;9646;52.034;5.554;2023-07-09T06:23:13;18.70;;;11.30;;
19026;SDS011;9646;52.034;5.554;2023-07-09T06:25:40;14.20;;;10.15;;
19026;SDS011;9646;52.034;5.554;2023-07-09T06:28:07;12.57;;;9.65;;
19026;SDS011;9646;52.034;5.554;2023-07-09T06:30:34;12.45;;;9.57;;
19026;SDS011;9646;52.034;5.554;2023-07-09T06:33:03;11.07;;;8.20;;
19026;SDS011;9646;52.034;5.554;2023-07-09T06:35:30;13.75;;;10.57;;
19026;SDS011;9646;52.034;5.554;2023-07-09T06:37:58;14.60;;;12.13;;
19026;SDS011;9646;52.034;5.554;2023-07-09T06:40:25;16.77;;;10.52;;
19026;SDS011;9646;52.034;5.554;2023-07-09T06:42:52;12.25;;;9.57;;
19026;SDS011;9646;52.034;5.554;2023-07-09T06:45:19;14.30;;;9.70;;
19026;SDS011;9646;52.034;5.554;2023-07-09T06:47:46;16.58;;;11.07;;
19026;SDS011;9646;52.034;5.554;2023-07-09T06:50:15;12.38;;;10.20;;
19026;SDS011;9646;52.034;5.554;2023-07-09T06:52:42;15.60;;;12.02;;
19026;SDS011;9646;52.034;5.554;2023-07-09T06:55:10;14.05;;;10.30;;
19026;SDS011;9646;52.034;5.554;2023-07-09T06:57:37;13.18;;;9.70;;
19026;SDS011;9646;52.034;5.554;2023-07-09T07:00:04;12.25;;;9.95;;
19026;SDS011;9646;52.034;5.554;2023-07-09T07:02:32;14.68;;;10.52;;
19026;SDS011;9646;52.034;5.554;2023-07-09T07:04:59;14.85;;;10.73;;
19026;SDS011;9646;52.034;5.554;2023-07-09T07:07:27;12.52;;;9.90;;
19026;SDS011;9646;52.034;5.554;2023-07-09T07:09:54;12.98;;;9.55;;
19026;SDS011;9646;52.034;5.554;2023-07-09T07:12:23;10.38;;;8.15;;
19026;SDS011;9646;52.034;5.554;2023-07-09T07:14:51;12.95;;;8.07;;
19026;SDS011;9646;52.034;5.554;2023-07-09T07:17:18;13.63;;;8.77;;
19026;SDS011;9646;52.034;5.554;2023-07-09T07:19:45;11.38;;;9.10;;
19026;SDS011;9646;52.034;5.554;2023-07-09T07:22:12;13.27;;;9.15;;
19026;SDS011;9646;52.034;5.554;2023-07-09T07:24:40;11.48;;;8.60;;
19026;SDS011;9646;52.034;5.554;2023-07-09T07:27:08;11.65;;;8.35;;
19026;SDS011;9646;52.034;5.554;2023-07-09T07:29:35;15.35;;;9.90;;
19026;SDS011;9646;52.034;5.554;2023-07-09T07:32:02;10.65;;;7.60;;
19026;SDS011;9646;52.034;5.554;2023-07-09T07:34:29;11.63;;;7.97;;
19026;SDS011;9646;52.034;5.554;2023-07-09T07:36:56;13.10;;;7.85;;
19026;SDS011;9646;52.034;5.554;2023-07-09T07:39:23;13.27;;;7.72;;
19026;SDS011;9646;52.034;5.554;2023-07-09T07:41:52;10.80;;;6.95;;
19026;SDS011;9646;52.034;5.554;2023-07-09T07:44:20;9.50;;;7.30;;
19026;SDS011;9646;52.034;5.554;2023-07-09T07:46:47;11.65;;;8.07;;
19026;SDS011;9646;52.034;5.554;2023-07-09T07:49:14;9.77;;;7.82;;
19026;SDS011;9646;52.034;5.554;2023-07-09T07:51:41;10.30;;;7.63;;
19026;SDS011;9646;52.034;5.554;2023-07-09T07:54:09;9.07;;;7.28;;
19026;SDS011;9646;52.034;5.554;2023-07-09T07:56:36;13.07;;;8.38;;
19026;SDS011;9646;52.034;5.554;2023-07-09T07:59:04;10.55;;;7.07;;
19026;SDS011;9646;52.034;5.554;2023-07-09T08:01:31;9.35;;;7.00;;
19026;SDS011;9646;52.034;5.554;2023-07-09T08:04:00;9.77;;;7.20;;
19026;SDS011;9646;52.034;5.554;2023-07-09T08:06:27;13.25;;;6.78;;
19026;SDS011;9646;52.034;5.554;2023-07-09T08:08:56;10.32;;;7.43;;
19026;SDS011;9646;52.034;5.554;2023-07-09T08:11:23;9.80;;;7.78;;
19026;SDS011;9646;52.034;5.554;2023-07-09T08:13:50;9.57;;;7.50;;
19026;SDS011;9646;52.034;5.554;2023-07-09T08:16:18;9.90;;;7.55;;
19026;SDS011;9646;52.034;5.554;2023-07-09T08:18:45;12.48;;;7.70;;
19026;SDS011;9646;52.034;5.554;2023-07-09T08:21:12;10.85;;;7.22;;
19026;SDS011;9646;52.034;5.554;2023-07-09T08:23:39;9.95;;;7.25;;
19026;SDS011;9646;52.034;5.554;2023-07-09T08:26:06;9.77;;;7.10;;
19026;SDS011;9646;52.034;5.554;2023-07-09T08:28:34;9.20;;;6.70;;
19026;SDS011;9646;52.034;5.554;2023-07-09T08:31:01;11.57;;;7.55;;
19026;SDS011;9646;52.034;5.554;2023-07-09T08:33:29;9.65;;;6.90;;
19026;SDS011;9646;52.034;5.554;2023-07-09T08:35:57;11.68;;;7.30;;
19026;SDS011;9646;52.034;5.554;2023-07-09T08:38:24;9.40;;;6.80;;
19026;SDS011;9646;52.034;5.554;2023-07-09T08:40:53;9.52;;;6.50;;
19026;SDS011;9646;52.034;5.554;2023-07-09T08:43:22;10.10;;;6.47;;
19026;SDS011;9646;52.034;5.554;2023-07-09T08:45:54;10.70;;;7.35;;
19026;SDS011;9646;52.034;5.554;2023-07-09T08:48:25;8.80;;;6.55;;
19026;SDS011;9646;52.034;5.554;2023-07-09T08:50:57;13.63;;;7.13;;
19026;SDS011;9646;52.034;5.554;2023-07-09T08:53:28;9.52;;;7.35;;
19026;SDS011;9646;52.034;5.554;2023-07-09T08:55:57;12.45;;;8.00;;
19026;SDS011;9646;52.034;5.554;2023-07-09T08:58:25;9.85;;;7.68;;
19026;SDS011;9646;52.034;5.554;2023-07-09T09:00:53;12.40;;;7.82;;
19026;SDS011;9646;52.034;5.554;2023-07-09T09:03:26;11.40;;;7.00;;
19026;SDS011;9646;52.034;5.554;2023-07-09T09:05:54;9.25;;;7.40;;
19026;SDS011;9646;52.034;5.554;2023-07-09T09:08:27;10.05;;;7.15;;
19026;SDS011;9646;52.034;5.554;2023-07-09T09:11:00;11.80;;;8.45;;
19026;SDS011;9646;52.034;5.554;2023-07-09T09:13:30;11.20;;;7.78;;
19026;SDS011;9646;52.034;5.554;2023-07-09T09:15:59;14.52;;;8.27;;
19026;SDS011;9646;52.034;5.554;2023-07-09T09:18:39;12.73;;;8.00;;
19026;SDS011;9646;52.034;5.554;2023-07-09T09:21:10;9.32;;;7.40;;
19026;SDS011;9646;52.034;5.554;2023-07-09T09:23:43;11.38;;;8.23;;
19026;SDS011;9646;52.034;5.554;2023-07-09T09:26:14;13.60;;;7.32;;
19026;SDS011;9646;52.034;5.554;2023-07-09T09:28:42;13.75;;;7.38;;
19026;SDS011;9646;52.034;5.554;2023-07-09T09:31:09;11.40;;;7.90;;
19026;SDS011;9646;52.034;5.554;2023-07-09T09:33:37;11.30;;;7.38;;
19026;SDS011;9646;52.034;5.554;2023-07-09T09:36:11;11.23;;;7.07;;
19026;SDS011;9646;52.034;5.554;2023-07-09T09:38:43;11.20;;;7.35;;
19026;SDS011;9646;52.034;5.554;2023-07-09T09:41:14;14.00;;;7.80;;
19026;SDS011;9646;52.034;5.554;2023-07-09T09:43:42;10.85;;;7.25;;
19026;SDS011;9646;52.034;5.554;2023-07-09T09:46:09;11.57;;;7.68;;
19026;SDS011;9646;52.034;5.554;2023-07-09T09:48:43;11.75;;;6.95;;
19026;SDS011;9646;52.034;5.554;2023-07-09T09:51:11;9.60;;;6.70;;
19026;SDS011;9646;52.034;5.554;2023-07-09T09:53:39;9.23;;;7.38;;
19026;SDS011;9646;52.034;5.554;2023-07-09T09:56:11;9.98;;;7.30;;
19026;SDS011;9646;52.034;5.554;2023-07-09T09:58:40;10.23;;;6.28;;
19026;SDS011;9646;52.034;5.554;2023-07-09T10:01:11;8.88;;;6.70;;
19026;SDS011;9646;52.034;5.554;2023-07-09T10:03:39;8.63;;;6.60;;
19026;SDS011;9646;52.034;5.554;2023-07-09T10:06:08;9.68;;;6.80;;
19026;SDS011;9646;52.034;5.554;2023-07-09T10:08:41;10.80;;;7.70;;
19026;SDS011;9646;52.034;5.554;2023-07-09T10:11:18;10.20;;;7.32;;
19026;SDS011;9646;52.034;5.554;2023-07-09T10:13:45;11.80;;;7.35;;
19026;SDS011;9646;52.034;5.554;2023-07-09T10:16:16;10.55;;;7.25;;
19026;SDS011;9646;52.034;5.554;2023-07-09T10:18:49;12.23;;;6.88;;
19026;SDS011;9646;52.034;5.554;2023-07-09T10:21:18;14.93;;;6.72;;
19026;SDS011;9646;52.034;5.554;2023-07-09T10:23:51;11.63;;;8.15;;
19026;SDS011;9646;52.034;5.554;2023-07-09T10:26:23;11.60;;;6.10;;
19026;SDS011;9646;52.034;5.554;2023-07-09T10:28:58;10.20;;;5.75;;
19026;SDS011;9646;52.034;5.554;2023-07-09T10:31:30;9.25;;;6.10;;
19026;SDS011;9646;52.034;5.554;2023-07-09T10:34:01;8.65;;;5.88;;
19026;SDS011;9646;52.034;5.554;2023-07-09T10:36:34;11.38;;;6.80;;
19026;SDS011;9646;52.034;5.554;2023-07-09T10:39:08;9.15;;;5.60;;
19026;SDS011;9646;52.034;5.554;2023-07-09T10:41:37;14.52;;;7.10;;
19026;SDS011;9646;52.034;5.554;2023-07-09T10:44:06;9.13;;;6.20;;
19026;SDS011;9646;52.034;5.554;2023-07-09T10:46:37;9.73;;;5.30;;
19026;SDS011;9646;52.034;5.554;2023-07-09T10:49:05;6.57;;;4.70;;
19026;SDS011;9646;52.034;5.554;2023-07-09T10:51:37;8.43;;;5.32;;
19026;SDS011;9646;52.034;5.554;2023-07-09T10:54:06;7.38;;;4.90;;
19026;SDS011;9646;52.034;5.554;2023-07-09T10:56:39;10.63;;;5.30;;
19026;SDS011;9646;52.034;5.554;2023-07-09T10:59:10;9.05;;;5.50;;
19026;SDS011;9646;52.034;5.554;2023-07-09T11:01:38;9.32;;;5.38;;
19026;SDS011;9646;52.034;5.554;2023-07-09T11:04:08;6.60;;;5.10;;
19026;SDS011;9646;52.034;5.554;2023-07-09T11:06:37;9.02;;;6.10;;
19026;SDS011;9646;52.034;5.554;2023-07-09T11:09:06;10.85;;;6.05;;
19026;SDS011;9646;52.034;5.554;2023-07-09T11:11:39;7.55;;;5.28;;
19026;SDS011;9646;52.034;5.554;2023-07-09T11:14:09;9.48;;;5.13;;
19026;SDS011;9646;52.034;5.554;2023-07-09T11:16:39;8.57;;;4.90;;
19026;SDS011;9646;52.034;5.554;2023-07-09T11:19:10;9.43;;;5.03;;
19026;SDS011;9646;52.034;5.554;2023-07-09T11:21:40;6.03;;;4.68;;
19026;SDS011;9646;52.034;5.554;2023-07-09T11:24:24;7.22;;;5.47;;
19026;SDS011;9646;52.034;5.554;2023-07-09T11:26:54;8.48;;;4.50;;
19026;SDS011;9646;52.034;5.554;2023-07-09T11:29:24;8.50;;;5.93;;
19026;SDS011;9646;52.034;5.554;2023-07-09T11:31:52;7.90;;;5.07;;
19026;SDS011;9646;52.034;5.554;2023-07-09T11:34:19;8.88;;;5.55;;
19026;SDS011;9646;52.034;5.554;2023-07-09T11:36:47;8.90;;;4.95;;
19026;SDS011;9646;52.034;5.554;2023-07-09T11:39:22;8.43;;;5.40;;
19026;SDS011;9646;52.034;5.554;2023-07-09T11:41:50;10.32;;;4.97;;
19026;SDS011;9646;52.034;5.554;2023-07-09T11:44:18;9.27;;;5.38;;
19026;SDS011;9646;52.034;5.554;2023-07-09T11:46:51;7.53;;;5.40;;
19026;SDS011;9646;52.034;5.554;2023-07-09T11:49:19;7.55;;;4.57;;
19026;SDS011;9646;52.034;5.554;2023-07-09T11:51:48;10.25;;;5.13;;
19026;SDS011;9646;52.034;5.554;2023-07-09T11:54:17;8.00;;;5.20;;
19026;SDS011;9646;52.034;5.554;2023-07-09T11:56:53;8.38;;;5.05;;
19026;SDS011;9646;52.034;5.554;2023-07-09T11:59:21;6.13;;;5.03;;
19026;SDS011;9646;52.034;5.554;2023-07-09T12:01:48;5.50;;;4.95;;
19026;SDS011;9646;52.034;5.554;2023-07-09T12:04:19;10.05;;;5.55;;
19026;SDS011;9646;52.034;5.554;2023-07-09T12:06:47;7.72;;;6.00;;
19026;SDS011;9646;52.034;5.554;2023-07-09T12:09:15;10.05;;;5.72;;
19026;SDS011;9646;52.034;5.554;2023-07-09T12:11:43;11.25;;;6.45;;
19026;SDS011;9646;52.034;5.554;2023-07-09T12:14:11;8.25;;;6.00;;
19026;SDS011;9646;52.034;5.554;2023-07-09T12:16:40;9.18;;;5.63;;
19026;SDS011;9646;52.034;5.554;2023-07-09T12:19:10;8.05;;;5.15;;
19026;SDS011;9646;52.034;5.554;2023-07-09T12:21:38;7.25;;;5.20;;
19026;SDS011;9646;52.034;5.554;2023-07-09T12:24:13;8.90;;;5.80;;
19026;SDS011;9646;52.034;5.554;2023-07-09T12:26:42;10.38;;;5.93;;
19026;SDS011;9646;52.034;5.554;2023-07-09T12:29:10;11.32;;;6.03;;
19026;SDS011;9646;52.034;5.554;2023-07-09T12:31:37;8.85;;;6.30;;
19026;SDS011;9646;52.034;5.554;2023-07-09T12:34:05;9.43;;;5.72;;
19026;SDS011;9646;52.034;5.554;2023-07-09T12:36:32;7.53;;;5.70;;
19026;SDS011;9646;52.034;5.554;2023-07-09T12:39:02;9.18;;;5.93;;
19026;SDS011;9646;52.034;5.554;2023-07-09T12:41:32;9.35;;;6.22;;
19026;SDS011;9646;52.034;5.554;2023-07-09T12:44:02;9.93;;;5.97;;
19026;SDS011;9646;52.034;5.554;2023-07-09T12:46:29;9.18;;;6.15;;
19026;SDS011;9646;52.034;5.554;2023-07-09T12:48:56;7.18;;;5.88;;
19026;SDS011;9646;52.034;5.554;2023-07-09T12:51:25;11.50;;;6.53;;
19026;SDS011;9646;52.034;5.554;2023-07-09T12:54:05;10.38;;;6.22;;
19026;SDS011;9646;52.034;5.554;2023-07-09T12:56:37;8.82;;;6.35;;
19026;SDS011;9646;52.034;5.554;2023-07-09T12:59:07;9.32;;;6.00;;
19026;SDS011;9646;52.034;5.554;2023-07-09T13:01:40;9.15;;;6.63;;
19026;SDS011;9646;52.034;5.554;2023-07-09T13:04:08;8.82;;;7.43;;
19026;SDS011;9646;52.034;5.554;2023-07-09T13:06:38;11.52;;;7.22;;
19026;SDS011;9646;52.034;5.554;2023-07-09T13:09:10;10.70;;;7.50;;
19026;SDS011;9646;52.034;5.554;2023-07-09T13:11:39;11.35;;;7.30;;
19026;SDS011;9646;52.034;5.554;2023-07-09T13:14:13;10.50;;;7.82;;
19026;SDS011;9646;52.034;5.554;2023-07-09T13:16:42;10.23;;;7.90;;
19026;SDS011;9646;52.034;5.554;2023-07-09T13:19:09;9.05;;;7.30;;
19026;SDS011;9646;52.034;5.554;2023-07-09T13:21:38;10.82;;;6.93;;
19026;SDS011;9646;52.034;5.554;2023-07-09T13:24:09;9.55;;;7.72;;
19026;SDS011;9646;52.034;5.554;2023-07-09T13:26:38;9.48;;;7.53;;
19026;SDS011;9646;52.034;5.554;2023-07-09T13:29:07;9.75;;;7.85;;
19026;SDS011;9646;52.034;5.554;2023-07-09T13:31:37;11.23;;;7.47;;
19026;SDS011;9646;52.034;5.554;2023-07-09T13:34:04;8.82;;;6.85;;
19026;SDS011;9646;52.034;5.554;2023-07-09T13:36:35;12.15;;;7.35;;
19026;SDS011;9646;52.034;5.554;2023-07-09T13:39:03;11.95;;;6.78;;
19026;SDS011;9646;52.034;5.554;2023-07-09T13:41:30;11.07;;;6.05;;
19026;SDS011;9646;52.034;5.554;2023-07-09T13:43:57;9.55;;;5.88;;
19026;SDS011;9646;52.034;5.554;2023-07-09T13:46:25;8.32;;;6.32;;
19026;SDS011;9646;52.034;5.554;2023-07-09T13:48:52;8.20;;;6.55;;
19026;SDS011;9646;52.034;5.554;2023-07-09T13:51:20;9.85;;;7.15;;
19026;SDS011;9646;52.034;5.554;2023-07-09T13:53:48;11.63;;;7.82;;
19026;SDS011;9646;52.034;5.554;2023-07-09T13:56:18;11.55;;;7.45;;
19026;SDS011;9646;52.034;5.554;2023-07-09T13:58:45;10.18;;;8.32;;
19026;SDS011;9646;52.034;5.554;2023-07-09T14:01:13;11.35;;;7.95;;
19026;SDS011;9646;52.034;5.554;2023-07-09T14:03:40;12.85;;;8.10;;
19026;SDS011;9646;52.034;5.554;2023-07-09T14:06:08;13.60;;;8.00;;
19026;SDS011;9646;52.034;5.554;2023-07-09T14:08:35;10.93;;;7.40;;
19026;SDS011;9646;52.034;5.554;2023-07-09T14:11:02;12.50;;;7.18;;
19026;SDS011;9646;52.034;5.554;2023-07-09T14:13:31;10.50;;;6.88;;
19026;SDS011;9646;52.034;5.554;2023-07-09T14:15:58;9.70;;;7.07;;
19026;SDS011;9646;52.034;5.554;2023-07-09T14:18:25;9.45;;;7.28;;
19026;SDS011;9646;52.034;5.554;2023-07-09T14:20:53;10.15;;;7.38;;
19026;SDS011;9646;52.034;5.554;2023-07-09T14:23:21;9.95;;;6.63;;
19026;SDS011;9646;52.034;5.554;2023-07-09T14:25:48;8.15;;;6.13;;
19026;SDS011;9646;52.034;5.554;2023-07-09T14:28:16;7.68;;;5.97;;
19026;SDS011;9646;52.034;5.554;2023-07-09T14:30:45;9.35;;;5.82;;
19026;SDS011;9646;52.034;5.554;2023-07-09T14:33:14;9.02;;;5.88;;
19026;SDS011;9646;52.034;5.554;2023-07-09T14:35:42;8.68;;;5.05;;
19026;SDS011;9646;52.034;5.554;2023-07-09T14:38:14;8.10;;;4.10;;
19026;SDS011;9646;52.034;5.554;2023-07-09T14:40:42;6.57;;;4.30;;
19026;SDS011;9646;52.034;5.554;2023-07-09T14:43:09;8.27;;;3.53;;
19026;SDS011;9646;52.034;5.554;2023-07-09T14:45:37;6.47;;;3.88;;
19026;SDS011;9646;52.034;5.554;2023-07-09T14:48:09;5.80;;;4.47;;
19026;SDS011;9646;52.034;5.554;2023-07-09T14:50:37;11.15;;;4.28;;
19026;SDS011;9646;52.034;5.554;2023-07-09T14:53:05;12.70;;;4.57;;
19026;SDS011;9646;52.034;5.554;2023-07-09T14:55:36;10.45;;;4.20;;
19026;SDS011;9646;52.034;5.554;2023-07-09T14:58:07;11.32;;;4.50;;